createdAt,value
2023-03-26T00:01:21.358Z,11.02
2023-03-26T00:03:53.964Z,11.02
2023-03-26T00:06:26.423Z,11.06
2023-03-26T00:08:57.442Z,10.98
2023-03-26T00:11:25.885Z,10.98
2023-03-26T00:13:56.893Z,11.03
2023-03-26T00:16:26.631Z,11.07
2023-03-26T00:18:53.551Z,11.05
2023-03-26T00:21:29.350Z,11.05
2023-03-26T00:24:11.803Z,11.04
2023-03-26T00:26:38.903Z,11.02
2023-03-26T00:29:06.909Z,11.08
2023-03-26T00:31:38.021Z,11.10
2023-03-26T00:34:05.847Z,11.10
2023-03-26T00:36:35.790Z,11.06
2023-03-26T00:39:05.539Z,11.11
2023-03-26T00:41:32.255Z,11.06
2023-03-26T00:44:00.468Z,11.03
2023-03-26T00:46:29.849Z,10.94
2023-03-26T00:49:00.146Z,10.91
2023-03-26T00:51:28.262Z,10.93
2023-03-26T00:53:58.499Z,10.92
2023-03-26T00:56:25.511Z,10.90
2023-03-26T00:58:52.065Z,10.90
2023-03-26T01:01:27.505Z,10.85
2023-03-26T01:04:08.210Z,10.84
2023-03-26T01:06:39.044Z,10.84
2023-03-26T01:09:19.583Z,10.80
2023-03-26T01:11:47.579Z,10.78
2023-03-26T01:14:21.312Z,10.73
2023-03-26T01:16:55.896Z,10.63
2023-03-26T01:19:51.978Z,10.67
2023-03-26T01:22:24.593Z,10.66
2023-03-26T01:24:56.306Z,10.59
2023-03-26T01:27:42.924Z,10.60
2023-03-26T01:30:51.950Z,10.51
2023-03-26T01:33:34.069Z,10.51
2023-03-26T01:36:26.033Z,10.43
2023-03-26T01:39:28.240Z,10.43
2023-03-26T01:42:02.378Z,10.45
2023-03-26T01:44:59.590Z,10.40
2023-03-26T01:47:26.956Z,10.37
2023-03-26T01:49:53.488Z,10.36
2023-03-26T01:52:25.332Z,10.33
2023-03-26T01:54:56.105Z,10.31
2023-03-26T01:57:47.500Z,10.21
2023-03-26T02:00:29.042Z,10.21
2023-03-26T02:03:08.848Z,10.15
2023-03-26T02:05:56.718Z,10.13
2023-03-26T02:08:35.586Z,10.16
2023-03-26T02:11:11.442Z,10.24
2023-03-26T02:13:44.741Z,10.22
2023-03-26T02:16:16.386Z,10.21
2023-03-26T02:18:45.078Z,10.23
2023-03-26T02:21:20.422Z,10.31
2023-03-26T02:23:57.669Z,10.34
2023-03-26T02:26:27.478Z,10.38
2023-03-26T02:28:53.974Z,10.38
2023-03-26T02:31:21.913Z,10.32
2023-03-26T02:33:52.144Z,10.25
2023-03-26T02:36:24.447Z,10.23
2023-03-26T02:38:51.810Z,10.17
2023-03-26T02:41:18.606Z,10.17
2023-03-26T02:43:45.323Z,10.15
2023-03-26T02:46:11.978Z,10.09
2023-03-26T02:48:38.745Z,10.08
2023-03-26T02:51:06.789Z,10.02
2023-03-26T02:53:33.664Z,9.99
2023-03-26T02:56:00.970Z,9.94
2023-03-26T02:58:30.167Z,9.83
2023-03-26T03:00:57.077Z,9.79
2023-03-26T03:03:27.395Z,9.72
2023-03-26T03:05:55.389Z,9.65
2023-03-26T03:08:24.276Z,9.64
2023-03-26T03:10:58.496Z,9.65
2023-03-26T03:13:25.413Z,9.59
2023-03-26T03:15:52.596Z,9.57
2023-03-26T03:18:19.326Z,9.51
2023-03-26T03:20:46.913Z,9.42
2023-03-26T03:23:14.816Z,9.39
2023-03-26T03:25:41.472Z,9.34
2023-03-26T03:28:08.523Z,9.27
2023-03-26T03:30:35.885Z,9.24
2023-03-26T03:33:03.165Z,9.22
2023-03-26T03:35:30.306Z,9.23
2023-03-26T03:37:58.356Z,9.16
2023-03-26T03:40:24.882Z,9.15
2023-03-26T03:42:51.680Z,9.14
2023-03-26T03:45:18.504Z,9.05
2023-03-26T03:47:45.155Z,9.03
2023-03-26T03:50:11.930Z,8.99
2023-03-26T03:52:38.450Z,8.94
2023-03-26T03:55:05.448Z,8.87
2023-03-26T03:57:34.744Z,8.94
2023-03-26T04:00:05.114Z,9.03
2023-03-26T04:02:35.060Z,9.02
2023-03-26T04:05:02.854Z,8.98
2023-03-26T04:07:32.170Z,8.97
2023-03-26T04:10:00.247Z,8.93
2023-03-26T04:12:28.509Z,8.94
2023-03-26T04:14:56.173Z,8.89
2023-03-26T04:17:23.526Z,8.86
2023-03-26T04:19:52.946Z,8.87
2023-03-26T04:22:19.876Z,8.84
2023-03-26T04:24:48.853Z,8.81
2023-03-26T04:27:20.264Z,8.67
2023-03-26T04:29:49.830Z,8.71
2023-03-26T04:32:26.611Z,8.68
2023-03-26T04:34:53.797Z,8.65
2023-03-26T04:37:27.540Z,8.60
2023-03-26T04:39:55.146Z,8.60
2023-03-26T04:42:21.768Z,8.53
2023-03-26T04:44:52.327Z,8.50
2023-03-26T04:47:19.305Z,8.44
2023-03-26T04:49:47.549Z,8.39
2023-03-26T04:52:15.040Z,8.37
2023-03-26T04:54:44.270Z,8.40
2023-03-26T04:57:21.441Z,8.39
2023-03-26T04:59:48.013Z,8.48
2023-03-26T05:02:15.578Z,8.46
2023-03-26T05:04:43.940Z,8.45
2023-03-26T05:07:12.945Z,8.42
2023-03-26T05:09:39.539Z,8.39
2023-03-26T05:12:06.201Z,8.39
2023-03-26T05:14:32.699Z,8.42
2023-03-26T05:17:06.063Z,8.37
2023-03-26T05:19:32.936Z,8.35
2023-03-26T05:21:59.594Z,8.36
2023-03-26T05:24:27.220Z,8.34
2023-03-26T05:26:56.536Z,8.37
2023-03-26T05:29:24.222Z,8.43
2023-03-26T05:31:51.213Z,8.40
2023-03-26T05:34:17.879Z,8.45
2023-03-26T05:36:44.426Z,8.55
2023-03-26T05:39:12.957Z,8.56
2023-03-26T05:41:39.628Z,8.58
2023-03-26T05:44:06.211Z,8.67
2023-03-26T05:46:32.853Z,8.74
2023-03-26T05:48:59.380Z,8.79
2023-03-26T05:51:26.026Z,8.85
2023-03-26T05:53:52.771Z,8.93
2023-03-26T05:56:19.370Z,9.09
2023-03-26T05:58:47.558Z,9.15
2023-03-26T06:01:18.598Z,9.15
2023-03-26T06:03:46.009Z,9.13
2023-03-26T06:06:16.268Z,9.12
2023-03-26T06:08:48.881Z,9.20
2023-03-26T06:11:29.766Z,9.24
2023-03-26T06:13:56.467Z,9.23
2023-03-26T06:16:27.311Z,9.23
2023-03-26T06:18:56.333Z,9.29
2023-03-26T06:21:25.129Z,9.33
2023-03-26T06:23:51.956Z,9.35
2023-03-26T06:26:23.443Z,9.44
2023-03-26T06:28:50.008Z,9.50
2023-03-26T06:31:17.426Z,9.54
2023-03-26T06:33:44.136Z,9.60
2023-03-26T06:36:10.899Z,9.67
2023-03-26T06:38:37.598Z,9.86
2023-03-26T06:41:06.295Z,9.87
2023-03-26T06:43:34.024Z,9.90
2023-03-26T06:46:04.147Z,9.92
2023-03-26T06:48:31.312Z,9.96
2023-03-26T06:50:58.160Z,9.96
2023-03-26T06:53:24.791Z,9.98
2023-03-26T06:55:53.851Z,10.02
2023-03-26T06:58:20.995Z,10.03
2023-03-26T07:00:47.649Z,10.08
2023-03-26T07:03:14.279Z,10.16
2023-03-26T07:05:41.245Z,10.25
2023-03-26T07:08:07.904Z,10.26
2023-03-26T07:10:34.534Z,10.22
2023-03-26T07:13:01.105Z,10.25
2023-03-26T07:15:28.711Z,10.31
2023-03-26T07:17:55.641Z,10.36
2023-03-26T07:20:22.316Z,10.43
2023-03-26T07:22:49.827Z,10.43
2023-03-26T07:25:17.848Z,10.49
2023-03-26T07:27:56.211Z,10.58
2023-03-26T07:30:42.194Z,10.63
2023-03-26T07:33:18.148Z,10.73
2023-03-26T07:35:57.089Z,10.79
2023-03-26T07:38:51.504Z,11.01
2023-03-26T07:41:23.893Z,11.08
2023-03-26T07:44:24.437Z,11.12
2023-03-26T07:46:53.450Z,11.21
2023-03-26T07:49:20.667Z,11.23
2023-03-26T07:51:48.914Z,11.38
2023-03-26T07:54:15.899Z,11.36
2023-03-26T07:57:04.869Z,11.39
2023-03-26T07:59:52.516Z,11.48
2023-03-26T08:02:37.015Z,11.54
2023-03-26T08:05:18.978Z,11.61
2023-03-26T08:08:16.477Z,11.63
2023-03-26T08:11:00.166Z,11.66
2023-03-26T08:14:14.973Z,11.77
2023-03-26T08:17:15.086Z,11.78
2023-03-26T08:19:50.216Z,11.85
2023-03-26T08:22:36.766Z,11.89
2023-03-26T08:25:03.514Z,12.00
2023-03-26T08:27:38.231Z,12.00
2023-03-26T08:30:17.282Z,12.06
2023-03-26T08:32:56.346Z,12.11
2023-03-26T08:35:24.258Z,12.14
2023-03-26T08:37:51.868Z,12.13
2023-03-26T08:40:43.672Z,12.14
2023-03-26T08:43:48.973Z,12.14
2023-03-26T08:46:33.552Z,12.22
2023-03-26T08:49:14.020Z,12.35
2023-03-26T08:51:46.631Z,12.41
2023-03-26T08:54:37.350Z,12.45
2023-03-26T08:57:27.958Z,12.39
2023-03-26T08:59:54.507Z,12.34
2023-03-26T09:02:38.863Z,12.34
2023-03-26T09:05:20.784Z,12.29
2023-03-26T09:08:16.697Z,12.23
2023-03-26T09:10:52.316Z,12.23
2023-03-26T09:13:24.672Z,12.28
2023-03-26T09:16:15.660Z,12.23
2023-03-26T09:19:16.895Z,12.28
2023-03-26T09:22:07.315Z,12.34
2023-03-26T09:24:52.690Z,12.47
2023-03-26T09:27:35.888Z,12.63
2023-03-26T09:30:31.621Z,12.80
2023-03-26T09:33:05.581Z,12.88
2023-03-26T09:35:53.796Z,13.06
2023-03-26T09:38:39.031Z,13.15
2023-03-26T09:41:17.451Z,13.25
2023-03-26T09:43:59.086Z,13.28
2023-03-26T09:46:47.572Z,13.44
2023-03-26T09:49:49.546Z,13.59
2023-03-26T09:52:50.396Z,13.72
2023-03-26T09:55:38.633Z,13.78
2023-03-26T09:58:23.731Z,13.76
2023-03-26T10:01:06.747Z,13.67
2023-03-26T10:04:33.278Z,13.64
2023-03-26T10:07:05.690Z,13.69
2023-03-26T10:09:38.130Z,13.74
2023-03-26T10:12:13.503Z,13.69
2023-03-26T10:14:54.891Z,13.80
2023-03-26T10:17:52.536Z,13.92
2023-03-26T10:20:25.182Z,13.92
2023-03-26T10:23:16.917Z,14.09
2023-03-26T10:25:51.063Z,14.13
2023-03-26T10:28:49.284Z,14.17
2023-03-26T10:31:37.144Z,14.30
2023-03-26T10:34:29.119Z,14.37
2023-03-26T10:37:36.679Z,14.33
2023-03-26T10:40:10.208Z,14.37
2023-03-26T10:43:09.005Z,14.42
2023-03-26T10:46:25.421Z,14.48
2023-03-26T10:49:28.355Z,14.57
2023-03-26T10:52:08.972Z,14.62
2023-03-26T10:54:35.573Z,14.75
2023-03-26T10:57:11.265Z,14.84
2023-03-26T10:59:37.911Z,14.86
2023-03-26T11:02:30.058Z,14.89
2023-03-26T11:05:24.890Z,14.95
2023-03-26T11:08:07.698Z,14.98
2023-03-26T11:10:48.563Z,14.98
2023-03-26T11:13:34.109Z,15.01
2023-03-26T11:16:09.775Z,15.03
2023-03-26T11:18:59.498Z,15.18
2023-03-26T11:21:47.857Z,15.23
2023-03-26T11:24:35.125Z,15.34
2023-03-26T11:27:14.484Z,15.39
2023-03-26T11:29:55.500Z,15.48
2023-03-26T11:32:34.411Z,15.55
2023-03-26T11:35:08.326Z,15.53
2023-03-26T11:37:41.596Z,15.55
2023-03-26T11:40:23.747Z,15.62
2023-03-26T11:42:56.008Z,15.67
2023-03-26T11:45:27.323Z,15.72
2023-03-26T11:48:08.201Z,15.77
2023-03-26T11:50:41.157Z,15.80
2023-03-26T11:53:17.780Z,15.79
2023-03-26T11:55:57.470Z,15.74
2023-03-26T11:58:32.351Z,15.74
2023-03-26T12:00:59.225Z,15.72
2023-03-26T12:03:30.323Z,15.75
2023-03-26T12:05:59.950Z,15.81
2023-03-26T12:08:39.843Z,15.83
2023-03-26T12:11:10.976Z,15.92
2023-03-26T12:13:44.206Z,15.93
2023-03-26T12:16:19.284Z,15.95
2023-03-26T12:18:57.509Z,15.94
2023-03-26T12:21:24.063Z,16.00
2023-03-26T12:23:54.005Z,16.01
2023-03-26T12:26:36.320Z,16.08
2023-03-26T12:29:14.270Z,16.02
2023-03-26T12:32:04.998Z,16.01
2023-03-26T12:34:35.511Z,16.02
2023-03-26T12:37:04.048Z,16.02
2023-03-26T12:40:10.588Z,16.01
2023-03-26T12:44:44.921Z,15.98
2023-03-26T12:45:24.314Z,16.00
2023-03-26T12:47:58.983Z,16.02
2023-03-26T12:50:42.814Z,16.08
2023-03-26T12:53:19.280Z,15.98
2023-03-26T12:55:57.561Z,16.01
2023-03-26T12:59:05.614Z,15.94
2023-03-26T13:01:47.297Z,16.01
2023-03-26T13:04:58.438Z,16.12
2023-03-26T13:07:56.739Z,16.23
2023-03-26T13:10:35.148Z,16.28
2023-03-26T13:13:57.934Z,16.37
2023-03-26T13:17:15.995Z,16.31
2023-03-26T13:19:49.538Z,16.33
2023-03-26T13:22:39.834Z,16.31
2023-03-26T13:25:31.832Z,16.41
2023-03-26T13:28:27.196Z,16.35
2023-03-26T13:31:07.065Z,16.38
2023-03-26T13:33:45.893Z,16.46
2023-03-26T13:36:39.708Z,16.42
2023-03-26T13:39:41.424Z,16.44
2023-03-26T13:42:33.840Z,16.34
2023-03-26T13:45:23.189Z,16.32
2023-03-26T13:47:54.969Z,16.35
2023-03-26T13:50:31.084Z,16.30
2023-03-26T13:53:17.000Z,16.27
2023-03-26T13:55:50.809Z,16.26
2023-03-26T13:58:24.236Z,16.27
2023-03-26T14:01:09.527Z,16.22
2023-03-26T14:04:04.308Z,16.27
2023-03-26T14:06:42.457Z,16.26
2023-03-26T14:09:26.004Z,16.26
2023-03-26T14:11:56.709Z,16.15
2023-03-26T14:14:57.945Z,16.18
2023-03-26T14:17:31.041Z,16.12
2023-03-26T14:20:28.064Z,16.18
2023-03-26T14:23:16.403Z,16.25
2023-03-26T14:26:13.545Z,16.31
2023-03-26T14:29:07.175Z,16.27
2023-03-26T14:31:42.623Z,16.26
2023-03-26T14:34:45.351Z,16.29
2023-03-26T14:37:47.794Z,16.25
2023-03-26T14:40:31.447Z,16.21
2023-03-26T14:43:16.336Z,16.20
2023-03-26T14:45:55.860Z,16.18
2023-03-26T14:48:55.862Z,16.15
2023-03-26T14:51:54.468Z,16.12
2023-03-26T14:54:27.804Z,16.07
2023-03-26T14:57:27.661Z,16.02
2023-03-26T15:00:29.205Z,15.95
2023-03-26T15:03:08.091Z,15.87
2023-03-26T15:05:53.172Z,15.82
2023-03-26T15:08:38.785Z,15.77
2023-03-26T15:11:20.987Z,15.75
2023-03-26T15:14:24.724Z,15.72
2023-03-26T15:17:03.858Z,15.67
2023-03-26T15:19:40.665Z,15.63
2023-03-26T15:22:48.239Z,15.60
2023-03-26T15:25:45.393Z,15.64
2023-03-26T15:28:24.198Z,15.54
2023-03-26T15:31:16.583Z,15.57
2023-03-26T15:33:59.010Z,15.51
2023-03-26T15:36:58.899Z,15.48
2023-03-26T15:40:12.817Z,15.46
2023-03-26T15:43:01.538Z,15.36
2023-03-26T15:45:28.186Z,15.33
2023-03-26T15:48:09.528Z,15.30
2023-03-26T15:50:56.260Z,15.24
2023-03-26T15:53:52.093Z,15.17
2023-03-26T15:56:43.086Z,15.16
2023-03-26T16:00:00.486Z,15.25
2023-03-26T16:02:53.883Z,15.16
2023-03-26T16:05:33.145Z,15.10
2023-03-26T16:08:31.443Z,15.04
2023-03-26T16:10:59.576Z,14.97
2023-03-26T16:13:26.082Z,14.90
2023-03-26T16:16:09.687Z,14.87
2023-03-26T16:18:42.143Z,14.82
2023-03-26T16:21:53.355Z,14.84
2023-03-26T16:24:24.403Z,14.82
2023-03-26T16:27:02.764Z,14.80
2023-03-26T16:29:30.530Z,14.75
2023-03-26T16:32:35.550Z,14.74
2023-03-26T16:35:21.831Z,14.64
2023-03-26T16:38:05.862Z,14.61
2023-03-26T16:40:34.366Z,14.52
2023-03-26T16:43:18.815Z,14.43
2023-03-26T16:46:17.940Z,14.33
2023-03-26T16:48:59.552Z,14.13
2023-03-26T16:51:50.874Z,13.95
2023-03-26T16:54:48.987Z,13.81
2023-03-26T16:57:27.153Z,13.69
2023-03-26T17:00:35.598Z,13.56
2023-03-26T17:03:18.141Z,13.44
2023-03-26T17:05:47.830Z,13.36
2023-03-26T17:08:58.411Z,13.29
2023-03-26T17:11:36.309Z,13.17
2023-03-26T17:14:24.594Z,13.06
2023-03-26T17:17:25.252Z,13.04
2023-03-26T17:20:04.072Z,12.99
2023-03-26T17:22:46.227Z,12.78
2023-03-26T17:25:24.426Z,12.56
2023-03-26T17:27:50.975Z,12.39
2023-03-26T17:30:34.699Z,12.22
2023-03-26T17:33:06.083Z,12.20
2023-03-26T17:35:45.593Z,12.15
2023-03-26T17:38:18.385Z,12.19
2023-03-26T17:40:56.849Z,12.26
2023-03-26T17:43:46.539Z,12.21
2023-03-26T17:46:29.489Z,12.01
2023-03-26T17:49:11.441Z,12.06
2023-03-26T17:51:47.483Z,12.07
2023-03-26T17:54:22.272Z,12.00
2023-03-26T17:56:49.690Z,12.07
2023-03-26T17:59:25.802Z,12.06
2023-03-26T18:01:57.572Z,12.02
2023-03-26T18:04:31.983Z,11.99
2023-03-26T18:07:44.087Z,11.95
2023-03-26T18:10:13.501Z,11.91
2023-03-26T18:13:04.324Z,11.93
2023-03-26T18:15:52.594Z,11.85
2023-03-26T18:18:34.561Z,11.83
2023-03-26T18:21:04.570Z,11.81
2023-03-26T18:23:41.206Z,11.78
2023-03-26T18:26:15.993Z,11.79
2023-03-26T18:28:44.973Z,11.74
2023-03-26T18:31:22.729Z,11.72
2023-03-26T18:33:50.836Z,11.68
2023-03-26T18:36:25.972Z,11.67
2023-03-26T18:38:57.953Z,11.67
2023-03-26T18:41:31.260Z,11.72
2023-03-26T18:44:03.429Z,11.76
2023-03-26T18:46:30.361Z,11.83
2023-03-26T18:48:58.811Z,11.82
2023-03-26T18:51:26.733Z,11.82
2023-03-26T18:53:59.336Z,11.84
2023-03-26T18:56:38.695Z,11.76
2023-03-26T18:59:21.646Z,11.67
2023-03-26T19:01:49.048Z,11.60
2023-03-26T19:04:16.453Z,11.57
2023-03-26T19:06:44.115Z,11.72
2023-03-26T19:09:24.257Z,11.62
2023-03-26T19:12:03.895Z,11.45
2023-03-26T19:14:35.345Z,11.37
2023-03-26T19:17:05.276Z,11.36
2023-03-26T19:19:37.353Z,11.42
2023-03-26T19:22:11.464Z,11.36
2023-03-26T19:24:40.417Z,11.37
2023-03-26T19:27:07.374Z,11.18
2023-03-26T19:29:36.232Z,11.01
2023-03-26T19:32:21.197Z,10.88
2023-03-26T19:34:48.570Z,10.92
2023-03-26T19:37:25.323Z,10.95
2023-03-26T19:40:14.325Z,10.92
2023-03-26T19:42:44.801Z,10.88
2023-03-26T19:45:19.297Z,10.90
2023-03-26T19:47:50.425Z,10.89
2023-03-26T19:50:27.159Z,10.85
2023-03-26T19:53:19.009Z,10.79
2023-03-26T19:56:04.473Z,10.66
2023-03-26T19:58:35.729Z,10.60
2023-03-26T20:01:06.512Z,10.42
2023-03-26T20:03:43.652Z,10.35
2023-03-26T20:06:16.133Z,10.48
2023-03-26T20:08:43.079Z,10.49
2023-03-26T20:11:16.592Z,10.56
2023-03-26T20:13:43.274Z,10.64
2023-03-26T20:16:27.209Z,10.61
2023-03-26T20:18:57.273Z,10.61
2023-03-26T20:21:27.073Z,10.62
2023-03-26T20:23:54.821Z,10.55
2023-03-26T20:26:23.572Z,10.51
2023-03-26T20:28:53.563Z,10.54
2023-03-26T20:31:23.351Z,10.53
2023-03-26T20:33:51.816Z,10.57
2023-03-26T20:36:34.147Z,10.59
2023-03-26T20:39:06.201Z,10.59
2023-03-26T20:41:34.199Z,10.64
2023-03-26T20:44:01.070Z,10.59
2023-03-26T20:46:30.600Z,10.60
2023-03-26T20:48:59.832Z,10.57
2023-03-26T20:51:28.497Z,10.59
2023-03-26T20:53:56.093Z,10.62
2023-03-26T20:56:22.728Z,10.65
2023-03-26T20:58:54.772Z,10.64
2023-03-26T21:01:27.862Z,10.72
2023-03-26T21:03:54.548Z,10.72
2023-03-26T21:06:21.058Z,10.70
2023-03-26T21:08:47.805Z,10.66
2023-03-26T21:11:27.269Z,10.67
2023-03-26T21:14:01.987Z,10.65
2023-03-26T21:16:28.853Z,10.60
2023-03-26T21:18:56.604Z,10.67
2023-03-26T21:21:42.789Z,10.64
2023-03-26T21:24:40.987Z,10.60
2023-03-26T21:27:31.024Z,10.56
2023-03-26T21:29:59.724Z,10.56
2023-03-26T21:32:26.758Z,10.62
2023-03-26T21:34:59.144Z,10.58
2023-03-26T21:37:26.877Z,10.63
2023-03-26T21:39:55.724Z,10.52
2023-03-26T21:42:27.168Z,10.53
2023-03-26T21:44:53.927Z,10.50
2023-03-26T21:47:20.694Z,10.49
2023-03-26T21:49:47.542Z,10.47
2023-03-26T21:52:15.400Z,10.43
2023-03-26T21:54:45.237Z,10.40
2023-03-26T21:57:35.788Z,10.39
2023-03-26T22:03:27.730Z,10.43
2023-03-26T22:06:21.922Z,10.41
2023-03-26T22:08:49.795Z,10.40
2023-03-26T22:11:16.319Z,10.39
2023-03-26T22:13:43.715Z,10.40
2023-03-26T22:16:10.787Z,10.43
2023-03-26T22:18:37.647Z,10.41
2023-03-26T22:21:04.768Z,10.44
2023-03-26T22:23:35.452Z,10.43
2023-03-26T22:26:03.279Z,10.42
2023-03-26T22:28:30.472Z,10.40
2023-03-26T22:30:59.660Z,10.41
2023-03-26T22:33:26.703Z,10.43
2023-03-26T22:35:55.538Z,10.41
2023-03-26T22:38:24.960Z,10.40
2023-03-26T22:40:59.540Z,10.37
2023-03-26T22:43:28.583Z,10.38
2023-03-26T22:45:55.566Z,10.32
2023-03-26T22:48:23.704Z,10.37
2023-03-26T22:51:08.185Z,10.36
2023-03-26T22:53:37.988Z,10.33
2023-03-26T22:56:04.909Z,10.29
2023-03-26T22:58:33.589Z,10.27
2023-03-26T23:01:10.618Z,10.26
2023-03-26T23:03:37.493Z,10.23
2023-03-26T23:06:07.673Z,10.14
2023-03-26T23:08:37.461Z,10.15
2023-03-26T23:11:13.753Z,10.15
2023-03-26T23:13:41.643Z,10.21
2023-03-26T23:16:11.368Z,10.19
2023-03-26T23:18:38.723Z,10.20
2023-03-26T23:21:12.059Z,10.17
2023-03-26T23:23:41.482Z,10.17
2023-03-26T23:26:08.350Z,10.18
2023-03-26T23:28:35.653Z,10.18
2023-03-26T23:31:05.183Z,10.15
2023-03-26T23:33:35.484Z,10.15
2023-03-26T23:36:09.052Z,10.13
2023-03-26T23:38:43.399Z,10.12
2023-03-26T23:41:15.294Z,10.13
2023-03-26T23:43:53.343Z,10.11
2023-03-26T23:46:26.042Z,10.11
2023-03-26T23:48:53.103Z,10.11
2023-03-26T23:51:21.042Z,10.09
2023-03-26T23:53:49.237Z,10.09
2023-03-26T23:56:16.319Z,10.10
2023-03-26T23:58:43.032Z,10.08
